Terminal Aerodrome Forecast
Issued by NWS

Home | Current Version | Previous Version | Text Only | Print | Product List | Glossary Off
Versions: 1 2 3 4 5 6 7 8 9 10 11 12 13 14 15 16 17 18 19 20 21 22 23 24 25 26 27 28 29 30 31 32 33
000 FTUS41 KBOX 211729 TAFBED TAF KBED 211729Z 2118/2218 02005KT P6SM OVC015 TEMPO 2118/2122 4SM -SHSN FM220000 VRB03KT P6SM OVC035 FM220800 00000KT P6SM OVC030 FM221300 00000KT P6SM OVC040 FM221600 VRB03KT P6SM OVC015=

USA.gov is the U.S. government's official web portal to all federal, state and local government web resources and services.